Time;durP1;ratioP1;P1;durP2;ratioP2;P2;SDS_P1;SDS_P2;PMS_P1;PMS_P2;Temp;Humidity;BMP_temperature;BMP_pressure;BME280_temperature;BME280_humidity;BME280_pressure;Samples;Min_cycle;Max_cycle;Signal;HPM_P1;HPM_P2
2023/09/22 00:01:32;;;;;;;5.43;4.72;;;;;;;;;;6232780;28;20292;-72
2023/09/22 00:04:37;;;;;;;8.65;5.30;;;;;;;;;;6230713;28;20303;-69
2023/09/22 00:07:41;;;;;;;9.45;5.32;;;;;;;;;;6232876;28;20293;-70
2023/09/22 00:10:45;;;;;;;9.50;5.35;;;;;;;;;;6232126;28;20296;-69
2023/09/22 00:13:49;;;;;;;6.70;4.45;;;;;;;;;;6231876;28;20304;-70
2023/09/22 00:16:54;;;;;;;12.98;5.22;;;;;;;;;;6230715;28;20295;-70
2023/09/22 00:19:58;;;;;;;6.93;4.45;;;;;;;;;;6231970;28;20304;-71
2023/09/22 00:23:02;;;;;;;5.75;4.70;;;;;;;;;;6232112;28;20295;-70
2023/09/22 00:26:06;;;;;;;5.97;4.90;;;;;;;;;;6246877;28;20395;-70
2023/09/22 00:29:09;;;;;;;5.80;4.60;;;;;;;;;;6231634;28;20328;-70
2023/09/22 00:32:15;;;;;;;5.63;4.78;;;;;;;;;;6231726;28;20304;-71
2023/09/22 00:35:19;;;;;;;6.32;5.10;;;;;;;;;;6230086;28;20313;-69
2023/09/22 00:38:22;;;;;;;6.22;4.93;;;;;;;;;;6229984;28;20444;-71
2023/09/22 00:41:27;;;;;;;4.95;4.68;;;;;;;;;;6232024;28;20484;-71
2023/09/22 00:44:31;;;;;;;5.00;4.60;;;;;;;;;;6234568;28;20307;-69
2023/09/22 00:47:37;;;;;;;7.07;4.95;;;;;;;;;;6251626;28;20387;-69
2023/09/22 00:50:41;;;;;;;6.20;4.57;;;;;;;;;;6251130;28;20305;-69
2023/09/22 00:53:45;;;;;;;4.72;4.35;;;;;;;;;;6235825;28;20307;-68
2023/09/22 00:56:50;;;;;;;10.15;5.00;;;;;;;;;;6234884;28;20299;-69
2023/09/22 00:59:54;;;;;;;6.45;4.78;;;;;;;;;;6251016;28;20259;-70
2023/09/22 01:03:00;;;;;;;6.10;4.68;;;;;;;;;;6233152;28;20544;-69
2023/09/22 01:06:04;;;;;;;6.78;5.05;;;;;;;;;;6234301;28;20304;-69
2023/09/22 01:09:09;;;;;;;5.13;4.47;;;;;;;;;;6250250;28;20557;-69
2023/09/22 01:12:13;;;;;;;7.97;4.85;;;;;;;;;;6235917;28;20315;-71
2023/09/22 01:15:17;;;;;;;5.15;4.60;;;;;;;;;;6235198;28;20296;-70
2023/09/22 01:18:22;;;;;;;5.68;5.18;;;;;;;;;;6250248;28;20296;-70
2023/09/22 01:21:29;;;;;;;8.90;5.72;;;;;;;;;;6250796;28;20297;-70
2023/09/22 01:24:32;;;;;;;8.93;5.32;;;;;;;;;;6249727;28;20316;-70
2023/09/22 01:27:36;;;;;;;8.95;4.65;;;;;;;;;;6235792;28;20490;-71
2023/09/22 01:30:40;;;;;;;5.60;5.20;;;;;;;;;;6249742;28;20308;-71
2023/09/22 01:33:45;;;;;;;5.28;4.53;;;;;;;;;;6234913;28;20538;-70
2023/09/22 01:36:51;;;;;;;7.65;4.93;;;;;;;;;;6235409;28;20548;-70
2023/09/22 01:39:57;;;;;;;5.47;4.57;;;;;;;;;;6249324;28;20300;-70
2023/09/22 01:43:01;;;;;;;5.50;5.00;;;;;;;;;;6235398;28;20590;-70
2023/09/22 01:46:05;;;;;;;5.03;4.63;;;;;;;;;;6234287;28;20308;-70
2023/09/22 01:49:09;;;;;;;9.52;4.82;;;;;;;;;;6233183;28;20300;-70
2023/09/22 01:52:15;;;;;;;10.23;5.00;;;;;;;;;;6235125;28;20308;-70
2023/09/22 01:55:19;;;;;;;8.40;4.40;;;;;;;;;;6248244;28;20300;-68
2023/09/22 01:58:22;;;;;;;9.32;5.30;;;;;;;;;;6234119;28;20305;-69
2023/09/22 02:01:26;;;;;;;13.77;5.65;;;;;;;;;;6249541;28;20308;-70
2023/09/22 02:04:30;;;;;;;11.70;4.90;;;;;;;;;;6232338;28;20316;-68
2023/09/22 02:07:36;;;;;;;4.93;4.28;;;;;;;;;;6234748;28;20304;-70
2023/09/22 02:10:40;;;;;;;11.80;5.15;;;;;;;;;;6249241;28;20309;-70
2023/09/22 02:13:43;;;;;;;8.05;4.80;;;;;;;;;;6249165;28;20296;-71
2023/09/22 02:16:48;;;;;;;9.95;5.30;;;;;;;;;;6234816;28;20296;-69
2023/09/22 02:19:52;;;;;;;5.75;4.93;;;;;;;;;;6248942;28;20601;-70
2023/09/22 02:22:58;;;;;;;8.32;5.20;;;;;;;;;;6249367;28;20352;-70
2023/09/22 02:26:06;;;;;;;7.07;5.15;;;;;;;;;;6233815;28;20304;-70
2023/09/22 02:29:10;;;;;;;7.07;5.28;;;;;;;;;;6231888;28;20556;-71
2023/09/22 02:32:14;;;;;;;8.32;5.22;;;;;;;;;;6234402;28;20308;-71
2023/09/22 02:35:18;;;;;;;9.82;5.55;;;;;;;;;;6233773;28;20296;-70
2023/09/22 02:38:23;;;;;;;7.80;5.10;;;;;;;;;;6233650;28;20335;-71
2023/09/22 02:41:27;;;;;;;11.85;5.15;;;;;;;;;;6232667;28;20308;-70
2023/09/22 02:44:31;;;;;;;6.25;5.05;;;;;;;;;;6248193;28;20295;-70
2023/09/22 02:47:34;;;;;;;6.72;5.30;;;;;;;;;;6249096;28;20292;-70
2023/09/22 02:50:39;;;;;;;10.15;5.13;;;;;;;;;;6232791;28;20292;-71
2023/09/22 02:53:45;;;;;;;11.52;5.35;;;;;;;;;;6248459;28;20300;-71
2023/09/22 02:56:49;;;;;;;10.80;5.57;;;;;;;;;;6233692;28;20308;-70
2023/09/22 02:59:53;;;;;;;11.25;5.50;;;;;;;;;;6233008;28;20304;-70
2023/09/22 03:02:57;;;;;;;12.05;6.28;;;;;;;;;;6219927;28;20307;-70
2023/09/22 03:06:01;;;;;;;9.43;5.90;;;;;;;;;;6233217;28;20523;-71
2023/09/22 03:09:06;;;;;;;11.38;5.70;;;;;;;;;;6231222;28;20307;-69
2023/09/22 03:12:10;;;;;;;9.10;5.70;;;;;;;;;;6233289;28;20296;-70
2023/09/22 03:15:14;;;;;;;8.68;5.60;;;;;;;;;;6247654;28;20588;-70
2023/09/22 03:18:19;;;;;;;10.00;6.05;;;;;;;;;;6247674;28;20551;-70
2023/09/22 03:21:24;;;;;;;9.43;5.57;;;;;;;;;;6233162;28;20304;-71
2023/09/22 03:24:29;;;;;;;10.27;6.45;;;;;;;;;;6233137;28;20331;-69
2023/09/22 03:27:34;;;;;;;9.50;5.45;;;;;;;;;;6230670;28;20589;-70
2023/09/22 03:30:39;;;;;;;10.60;5.45;;;;;;;;;;6247897;28;20304;-70
2023/09/22 03:33:46;;;;;;;9.77;5.75;;;;;;;;;;6247548;28;20474;-71
2023/09/22 03:36:51;;;;;;;9.90;5.53;;;;;;;;;;6199481;28;20575;-71
2023/09/22 03:39:56;;;;;;;12.48;6.18;;;;;;;;;;6182742;28;20595;-71
2023/09/22 03:43:03;;;;;;;12.25;5.90;;;;;;;;;;6182559;28;20348;-70
2023/09/22 03:46:08;;;;;;;10.43;5.78;;;;;;;;;;6184020;28;20305;-70
2023/09/22 03:49:12;;;;;;;6.70;5.63;;;;;;;;;;6182766;28;20302;-70
2023/09/22 03:52:17;;;;;;;13.07;6.40;;;;;;;;;;6184224;28;20563;-70
2023/09/22 03:55:22;;;;;;;10.23;5.82;;;;;;;;;;6183741;28;20593;-70
2023/09/22 03:58:25;;;;;;;11.43;6.50;;;;;;;;;;6182234;28;20293;-69
2023/09/22 04:01:30;;;;;;;8.85;5.93;;;;;;;;;;6183209;28;20519;-70
2023/09/22 04:04:34;;;;;;;7.45;5.93;;;;;;;;;;6181637;28;20293;-70
2023/09/22 04:07:38;;;;;;;10.95;6.03;;;;;;;;;;6184139;28;20590;-69
2023/09/22 04:10:44;;;;;;;10.73;6.15;;;;;;;;;;6183589;28;20305;-70
2023/09/22 04:13:47;;;;;;;17.02;6.70;;;;;;;;;;6183514;28;20294;-71
2023/09/22 04:16:51;;;;;;;12.65;6.25;;;;;;;;;;6184252;28;20344;-70
2023/09/22 04:19:55;;;;;;;14.73;5.97;;;;;;;;;;6178051;28;20471;-70
2023/09/22 04:22:59;;;;;;;11.88;6.47;;;;;;;;;;6175504;28;20309;-70
2023/09/22 04:26:09;;;;;;;13.98;5.90;;;;;;;;;;6188759;28;20597;-71
2023/09/22 04:29:13;;;;;;;12.10;6.28;;;;;;;;;;6188120;28;20310;-70
2023/09/22 04:32:18;;;;;;;16.10;6.20;;;;;;;;;;6188612;28;20618;-71
2023/09/22 04:35:22;;;;;;;11.93;6.72;;;;;;;;;;6212513;28;20308;-71
2023/09/22 04:38:26;;;;;;;11.05;6.50;;;;;;;;;;6236385;28;20292;-69
2023/09/22 04:41:31;;;;;;;8.65;6.40;;;;;;;;;;6236821;28;20312;-70
2023/09/22 04:44:36;;;;;;;9.15;6.55;;;;;;;;;;6236095;28;20376;-69
2023/09/22 04:47:40;;;;;;;11.27;6.80;;;;;;;;;;6236371;28;20307;-71
2023/09/22 04:50:44;;;;;;;12.23;6.60;;;;;;;;;;6236132;28;20296;-70
2023/09/22 04:53:47;;;;;;;13.40;6.72;;;;;;;;;;6235898;28;20593;-72
2023/09/22 04:56:53;;;;;;;12.88;6.85;;;;;;;;;;6236405;28;20304;-71
2023/09/22 04:59:56;;;;;;;14.82;6.45;;;;;;;;;;6235606;28;20445;-70
2023/09/22 05:03:00;;;;;;;10.73;6.47;;;;;;;;;;6233731;28;20313;-70
2023/09/22 05:06:06;;;;;;;8.63;6.78;;;;;;;;;;6236212;28;20404;-70
2023/09/22 05:09:10;;;;;;;13.68;6.43;;;;;;;;;;6235641;28;20593;-71
2023/09/22 05:12:16;;;;;;;13.48;7.18;;;;;;;;;;6213297;28;20300;-69
2023/09/22 05:15:20;;;;;;;13.40;6.93;;;;;;;;;;6211511;28;20313;-68
2023/09/22 05:18:24;;;;;;;7.25;6.53;;;;;;;;;;6211352;28;20617;-70
2023/09/22 05:21:28;;;;;;;7.70;6.00;;;;;;;;;;6211462;28;20300;-71
2023/09/22 05:24:32;;;;;;;9.30;6.32;;;;;;;;;;6211203;28;20292;-69
2023/09/22 05:27:37;;;;;;;10.63;6.55;;;;;;;;;;6210870;28;20269;-69
2023/09/22 05:30:41;;;;;;;14.48;5.97;;;;;;;;;;6210417;28;20305;-70
2023/09/22 05:33:45;;;;;;;9.00;5.85;;;;;;;;;;6210346;28;20313;-70
2023/09/22 05:36:49;;;;;;;12.32;6.32;;;;;;;;;;6234864;28;20316;-70
2023/09/22 05:39:53;;;;;;;8.50;6.10;;;;;;;;;;6235375;28;20323;-69
2023/09/22 05:42:58;;;;;;;10.35;6.00;;;;;;;;;;6234816;28;20332;-69
2023/09/22 05:46:03;;;;;;;11.10;6.18;;;;;;;;;;6235106;28;20541;-69
2023/09/22 05:49:07;;;;;;;13.75;5.88;;;;;;;;;;6249828;28;20296;-70
2023/09/22 05:52:11;;;;;;;8.35;6.07;;;;;;;;;;6235541;28;20331;-70
2023/09/22 05:55:15;;;;;;;8.38;5.88;;;;;;;;;;6234553;28;20304;-70
2023/09/22 05:58:20;;;;;;;12.95;5.93;;;;;;;;;;6234511;28;20297;-70
2023/09/22 06:01:24;;;;;;;9.48;5.75;;;;;;;;;;6234875;28;20320;-70
2023/09/22 06:04:29;;;;;;;9.25;5.65;;;;;;;;;;6232468;28;20408;-69
2023/09/22 06:07:35;;;;;;;8.25;5.45;;;;;;;;;;6234596;28;20297;-71
2023/09/22 06:10:40;;;;;;;10.63;6.40;;;;;;;;;;6234002;28;20304;-70
2023/09/22 06:13:45;;;;;;;23.05;6.18;;;;;;;;;;6233016;28;20288;-69
2023/09/22 06:16:49;;;;;;;7.93;6.10;;;;;;;;;;6234044;28;20323;-70
2023/09/22 06:19:53;;;;;;;9.50;6.13;;;;;;;;;;6233878;28;20324;-67
2023/09/22 06:22:57;;;;;;;12.10;5.57;;;;;;;;;;6233610;28;20308;-68
2023/09/22 06:26:02;;;;;;;13.52;5.88;;;;;;;;;;6234328;28;20296;-70
2023/09/22 06:29:07;;;;;;;15.38;5.75;;;;;;;;;;6233775;28;20307;-69
2023/09/22 06:32:11;;;;;;;8.38;5.75;;;;;;;;;;6234020;28;20319;-69
2023/09/22 06:35:15;;;;;;;11.18;5.60;;;;;;;;;;6232987;28;20368;-71
2023/09/22 06:38:19;;;;;;;10.32;5.35;;;;;;;;;;6233268;28;20299;-69
2023/09/22 06:41:23;;;;;;;7.68;5.60;;;;;;;;;;6248475;28;20344;-70
2023/09/22 06:44:28;;;;;;;12.13;5.47;;;;;;;;;;6233524;28;20304;-69
2023/09/22 06:47:34;;;;;;;14.52;5.78;;;;;;;;;;6233865;28;20296;-70
2023/09/22 06:50:37;;;;;;;9.27;5.07;;;;;;;;;;6233436;28;20296;-70
2023/09/22 06:53:41;;;;;;;9.88;5.60;;;;;;;;;;6233567;28;20311;-70
2023/09/22 06:56:46;;;;;;;14.35;5.05;;;;;;;;;;6233787;28;20320;-71
2023/09/22 06:59:55;;;;;;;11.48;4.93;;;;;;;;;;6248126;28;20307;-71
2023/09/22 07:02:59;;;;;;;11.07;5.30;;;;;;;;;;6231576;28;20469;-69
2023/09/22 07:06:03;;;;;;;9.43;4.95;;;;;;;;;;6233928;28;20296;-70
2023/09/22 07:09:11;;;;;;;6.15;5.07;;;;;;;;;;6232990;28;20323;-70
2023/09/22 07:12:15;;;;;;;12.88;5.28;;;;;;;;;;6233418;28;20516;-69
2023/09/22 07:15:22;;;;;;;7.25;5.45;;;;;;;;;;6232932;28;20303;-69
2023/09/22 07:18:26;;;;;;;9.85;4.88;;;;;;;;;;6232973;28;20311;-69
2023/09/22 07:21:30;;;;;;;8.40;5.03;;;;;;;;;;6233278;28;20328;-69
2023/09/22 07:24:34;;;;;;;8.45;4.90;;;;;;;;;;6231392;28;20464;-69
2023/09/22 07:27:39;;;;;;;7.80;4.88;;;;;;;;;;6232771;28;20290;-68
2023/09/22 07:30:45;;;;;;;8.55;5.00;;;;;;;;;;6232665;28;20308;-69
2023/09/22 07:33:53;;;;;;;10.82;5.13;;;;;;;;;;6232296;28;20332;-69
2023/09/22 07:36:57;;;;;;;7.63;4.80;;;;;;;;;;6232753;28;20336;-69
2023/09/22 07:40:17;;;;;;;8.27;4.88;;;;;;;;;;6232304;28;20304;-70
2023/09/22 07:43:21;;;;;;;9.48;4.60;;;;;;;;;;6231787;28;20295;-72
2023/09/22 07:46:27;;;;;;;7.45;5.32;;;;;;;;;;6232323;28;20316;-72
2023/09/22 07:49:31;;;;;;;6.63;4.65;;;;;;;;;;6231688;28;20461;-71
2023/09/22 07:52:35;;;;;;;8.68;4.38;;;;;;;;;;6232247;28;20295;-69
2023/09/22 07:55:41;;;;;;;11.75;4.72;;;;;;;;;;6236675;28;20388;-69
2023/09/22 07:58:45;;;;;;;8.38;4.93;;;;;;;;;;6236873;28;20292;-70
2023/09/22 08:02:03;;;;;;;13.90;4.40;;;;;;;;;;6236951;28;20385;-75
2023/09/22 08:05:08;;;;;;;7.68;4.45;;;;;;;;;;6236781;28;20304;-69
2023/09/22 08:08:13;;;;;;;9.88;5.03;;;;;;;;;;6236771;28;20292;-69
2023/09/22 08:11:17;;;;;;;5.22;4.75;;;;;;;;;;6237382;28;20323;-69
2023/09/22 08:14:23;;;;;;;6.10;4.72;;;;;;;;;;6236538;28;20315;-70
2023/09/22 08:17:43;;;;;;;9.57;4.60;;;;;;;;;;6237081;28;20308;-70
2023/09/22 08:20:46;;;;;;;11.05;4.78;;;;;;;;;;6236379;28;20615;-69
2023/09/22 08:23:50;;;;;;;6.43;4.22;;;;;;;;;;6235989;28;20292;-70
2023/09/22 08:26:59;;;;;;;6.72;4.80;;;;;;;;;;6236862;28;20307;-70
2023/09/22 08:30:09;;;;;;;9.45;4.53;;;;;;;;;;6236190;28;20296;-70
2023/09/22 08:33:14;;;;;;;5.55;4.38;;;;;;;;;;6237256;28;20298;-70
2023/09/22 08:36:17;;;;;;;8.15;5.00;;;;;;;;;;6235850;28;20320;-70
2023/09/22 08:39:21;;;;;;;4.80;4.30;;;;;;;;;;6235908;28;20296;-70
2023/09/22 08:42:25;;;;;;;7.82;5.00;;;;;;;;;;6236051;28;20296;-70
2023/09/22 08:45:29;;;;;;;8.02;4.50;;;;;;;;;;6234192;28;20247;-70
2023/09/22 08:48:34;;;;;;;7.45;4.90;;;;;;;;;;6235169;28;20395;-70
2023/09/22 08:51:38;;;;;;;7.72;4.47;;;;;;;;;;6236380;28;20250;-69
2023/09/22 08:54:42;;;;;;;9.82;4.85;;;;;;;;;;6235814;28;20297;-69
2023/09/22 08:57:47;;;;;;;6.32;4.60;;;;;;;;;;6236068;28;20440;-69
2023/09/22 09:00:53;;;;;;;10.73;4.80;;;;;;;;;;6235478;28;20553;-71
2023/09/22 09:04:01;;;;;;;13.20;5.22;;;;;;;;;;6233593;28;20300;-70
2023/09/22 09:07:05;;;;;;;15.73;5.22;;;;;;;;;;6236398;28;20288;-70
2023/09/22 09:10:10;;;;;;;10.50;5.32;;;;;;;;;;6235482;28;20304;-72
2023/09/22 09:13:14;;;;;;;9.30;4.53;;;;;;;;;;6235509;28;20292;-72
2023/09/22 09:16:30;;;;;;;6.82;4.95;;;;;;;;;;6235912;28;20625;-70
2023/09/22 09:19:35;;;;;;;7.97;5.20;;;;;;;;;;6250233;28;20319;-71
2023/09/22 09:22:40;;;;;;;10.07;5.10;;;;;;;;;;6235854;28;20361;-69
2023/09/22 09:25:46;;;;;;;10.13;5.20;;;;;;;;;;6234932;28;20453;-69
2023/09/22 09:28:49;;;;;;;11.13;5.25;;;;;;;;;;6234762;28;20451;-68
2023/09/22 09:31:53;;;;;;;8.93;4.95;;;;;;;;;;6235423;28;20315;-68
2023/09/22 09:34:59;;;;;;;11.43;5.15;;;;;;;;;;6234150;28;20332;-68
2023/09/22 09:38:03;;;;;;;6.63;4.72;;;;;;;;;;6234751;28;20578;-69
2023/09/22 09:41:08;;;;;;;8.43;5.13;;;;;;;;;;6234697;28;20304;-71
2023/09/22 09:44:12;;;;;;;11.77;4.72;;;;;;;;;;6234486;28;20304;-69
2023/09/22 09:47:24;;;;;;;4.75;4.35;;;;;;;;;;6234571;28;20375;-69
2023/09/22 09:50:35;;;;;;;7.78;4.90;;;;;;;;;;6234351;28;20463;-68
2023/09/22 09:53:43;;;;;;;5.43;4.88;;;;;;;;;;6234216;28;20589;-70
2023/09/22 09:56:48;;;;;;;5.82;4.57;;;;;;;;;;6235523;28;20312;-71
2023/09/22 09:59:53;;;;;;;5.93;5.13;;;;;;;;;;6249934;28;20299;-70
2023/09/22 10:03:01;;;;;;;6.18;4.80;;;;;;;;;;6247576;28;20308;-71
2023/09/22 10:06:09;;;;;;;5.25;4.78;;;;;;;;;;6234683;28;20316;-68
2023/09/22 10:09:12;;;;;;;11.77;5.38;;;;;;;;;;6234119;28;20372;-69
2023/09/22 10:12:16;;;;;;;11.60;5.20;;;;;;;;;;6234653;28;20300;-68
2023/09/22 10:15:55;;;;;;;8.77;4.85;;;;;;;;;;6233498;28;20307;-69
2023/09/22 10:19:00;;;;;;;6.05;4.90;;;;;;;;;;6227477;28;20304;-69
2023/09/22 10:22:12;;;;;;;7.70;4.97;;;;;;;;;;6234130;28;20304;-69
2023/09/22 10:25:24;;;;;;;8.15;5.18;;;;;;;;;;6233939;28;20605;-70
2023/09/22 10:28:39;;;;;;;6.05;5.25;;;;;;;;;;6233607;28;20247;-71
2023/09/22 10:32:14;;;;;;;14.18;5.95;;;;;;;;;;6234177;28;20288;-69
2023/09/22 10:35:38;;;;;;;10.43;5.18;;;;;;;;;;6233368;28;20312;-69
2023/09/22 10:39:00;;;;;;;6.30;4.97;;;;;;;;;;6233385;28;20316;-71
2023/09/22 10:42:06;;;;;;;9.60;5.75;;;;;;;;;;6233347;28;20304;-69
2023/09/22 10:45:11;;;;;;;8.90;5.40;;;;;;;;;;6233530;28;20537;-69
2023/09/22 10:48:17;;;;;;;7.55;5.53;;;;;;;;;;6248355;28;20288;-70
2023/09/22 10:51:22;;;;;;;9.32;5.45;;;;;;;;;;6233724;28;20304;-69
2023/09/22 10:54:28;;;;;;;18.42;5.95;;;;;;;;;;6233206;28;20359;-69
2023/09/22 10:57:33;;;;;;;6.45;5.47;;;;;;;;;;6233864;28;20324;-70
2023/09/22 11:00:41;;;;;;;11.27;5.70;;;;;;;;;;6232195;28;20349;-71
2023/09/22 11:03:51;;;;;;;7.65;6.05;;;;;;;;;;6231145;28;20320;-69
2023/09/22 11:06:54;;;;;;;5.53;5.10;;;;;;;;;;6233617;28;20312;-69
2023/09/22 11:10:00;;;;;;;7.38;5.10;;;;;;;;;;6247994;28;20295;-69
2023/09/22 11:13:04;;;;;;;12.30;6.13;;;;;;;;;;6232991;28;20308;-69
2023/09/22 11:16:09;;;;;;;6.35;5.43;;;;;;;;;;6233591;28;20300;-69
2023/09/22 11:19:12;;;;;;;6.85;5.38;;;;;;;;;;6232844;28;20300;-70
2023/09/22 11:22:17;;;;;;;6.13;5.57;;;;;;;;;;6233400;28;20308;-69
2023/09/22 11:25:22;;;;;;;6.70;5.15;;;;;;;;;;6232826;28;20498;-70
2023/09/22 11:28:27;;;;;;;8.27;5.28;;;;;;;;;;6232528;28;20237;-69
2023/09/22 11:31:32;;;;;;;10.27;5.55;;;;;;;;;;6232716;28;20312;-70
2023/09/22 11:34:46;;;;;;;10.02;5.28;;;;;;;;;;6232587;28;20308;-70
2023/09/22 11:38:27;;;;;;;5.78;5.28;;;;;;;;;;6232539;28;20300;-69
2023/09/22 11:41:32;;;;;;;5.82;5.22;;;;;;;;;;6233129;28;20304;-71
2023/09/22 11:44:36;;;;;;;9.23;5.70;;;;;;;;;;6232531;28;20299;-69
2023/09/22 11:47:40;;;;;;;10.30;5.60;;;;;;;;;;6232927;28;20593;-69
2023/09/22 11:50:44;;;;;;;11.27;5.43;;;;;;;;;;6232639;28;20304;-70
2023/09/22 11:53:48;;;;;;;9.15;6.05;;;;;;;;;;6232781;28;20517;-71
2023/09/22 11:56:57;;;;;;;8.18;5.90;;;;;;;;;;6232863;28;20304;-69
2023/09/22 12:00:07;;;;;;;8.15;5.93;;;;;;;;;;6231989;28;20311;-70
2023/09/22 12:03:11;;;;;;;11.07;6.20;;;;;;;;;;6230391;28;20308;-68
2023/09/22 12:06:15;;;;;;;7.43;6.03;;;;;;;;;;6232566;28;20304;-68
2023/09/22 12:09:19;;;;;;;9.18;5.72;;;;;;;;;;6232226;28;20655;-70
2023/09/22 12:12:24;;;;;;;10.88;5.93;;;;;;;;;;6232438;28;20793;-70
2023/09/22 12:15:28;;;;;;;7.07;6.10;;;;;;;;;;6232067;28;20323;-69
2023/09/22 12:18:32;;;;;;;13.05;6.13;;;;;;;;;;6232381;28;20303;-72
2023/09/22 12:21:36;;;;;;;6.35;5.85;;;;;;;;;;6231443;28;20597;-72
2023/09/22 12:24:39;;;;;;;7.93;6.13;;;;;;;;;;6232107;28;20316;-71
2023/09/22 12:27:45;;;;;;;8.38;6.10;;;;;;;;;;6247067;28;20292;-70
2023/09/22 12:30:49;;;;;;;9.98;5.85;;;;;;;;;;6231966;28;20304;-71
2023/09/22 12:33:53;;;;;;;8.18;5.65;;;;;;;;;;6231618;28;20306;-70
2023/09/22 12:36:57;;;;;;;9.68;6.28;;;;;;;;;;6232404;28;20324;-69
2023/09/22 12:40:03;;;;;;;9.20;5.63;;;;;;;;;;6234366;28;20315;-71
2023/09/22 12:43:08;;;;;;;10.13;5.97;;;;;;;;;;6236359;28;20316;-70
2023/09/22 12:46:13;;;;;;;8.70;6.32;;;;;;;;;;6236364;28;20300;-70
2023/09/22 12:49:17;;;;;;;9.05;5.68;;;;;;;;;;6237296;28;20384;-71
2023/09/22 12:52:21;;;;;;;7.28;6.40;;;;;;;;;;6236421;28;20300;-71
2023/09/22 12:55:25;;;;;;;11.13;6.07;;;;;;;;;;6236181;28;20308;-69
2023/09/22 12:58:30;;;;;;;8.20;6.63;;;;;;;;;;6235727;28;20304;-71
2023/09/22 13:01:34;;;;;;;9.18;6.00;;;;;;;;;;6236404;28;20304;-69
2023/09/22 13:04:39;;;;;;;11.35;6.55;;;;;;;;;;6234299;28;20545;-69
2023/09/22 13:07:43;;;;;;;10.15;5.70;;;;;;;;;;6236201;28;20251;-70
2023/09/22 13:10:47;;;;;;;10.95;6.18;;;;;;;;;;6235969;28;20323;-70
2023/09/22 13:13:52;;;;;;;8.95;5.95;;;;;;;;;;6235711;28;20320;-70
2023/09/22 13:16:56;;;;;;;10.07;6.00;;;;;;;;;;6235952;28;20465;-70
2023/09/22 13:20:00;;;;;;;10.60;6.10;;;;;;;;;;6235384;28;20300;-70
2023/09/22 13:23:04;;;;;;;11.82;6.53;;;;;;;;;;6235251;28;20320;-70
2023/09/22 13:26:08;;;;;;;10.38;6.47;;;;;;;;;;6235940;28;20308;-69
2023/09/22 13:29:13;;;;;;;11.45;6.20;;;;;;;;;;6235373;28;20300;-70
2023/09/22 13:32:17;;;;;;;13.48;7.13;;;;;;;;;;6235863;28;20369;-71
2023/09/22 13:35:21;;;;;;;17.15;7.00;;;;;;;;;;6235144;28;20331;-69
2023/09/22 13:38:25;;;;;;;8.95;6.25;;;;;;;;;;6234954;28;20299;-69
2023/09/22 13:41:28;;;;;;;7.13;6.13;;;;;;;;;;6235350;28;20533;-70
2023/09/22 13:44:34;;;;;;;10.18;6.45;;;;;;;;;;6235088;28;20308;-70
2023/09/22 13:47:38;;;;;;;7.95;6.22;;;;;;;;;;6235329;28;20617;-70
2023/09/22 13:50:42;;;;;;;11.63;6.82;;;;;;;;;;6234400;28;20312;-71
2023/09/22 13:53:46;;;;;;;9.95;7.15;;;;;;;;;;6234534;28;20335;-70
2023/09/22 13:56:50;;;;;;;9.55;6.63;;;;;;;;;;6235168;28;20620;-69
2023/09/22 13:59:55;;;;;;;10.48;7.20;;;;;;;;;;6234588;28;20312;-69
2023/09/22 14:03:00;;;;;;;9.65;7.13;;;;;;;;;;6232750;28;20304;-70
2023/09/22 14:06:05;;;;;;;10.82;7.28;;;;;;;;;;6234767;28;20301;-69
2023/09/22 14:09:08;;;;;;;9.82;7.13;;;;;;;;;;6249432;28;20482;-68
2023/09/22 14:12:12;;;;;;;9.48;6.60;;;;;;;;;;6234633;28;20324;-69
2023/09/22 14:15:19;;;;;;;8.07;6.43;;;;;;;;;;6234982;28;20304;-69
2023/09/22 14:18:23;;;;;;;16.77;6.82;;;;;;;;;;6232814;28;20296;-70
2023/09/22 14:21:27;;;;;;;13.98;6.55;;;;;;;;;;6234511;28;20596;-69
2023/09/22 14:24:30;;;;;;;17.73;7.30;;;;;;;;;;6234063;28;20304;-70
2023/09/22 14:27:34;;;;;;;14.25;7.70;;;;;;;;;;6233061;28;20295;-69
2023/09/22 14:30:40;;;;;;;11.80;7.70;;;;;;;;;;6233718;28;20608;-69
2023/09/22 14:33:44;;;;;;;12.48;7.32;;;;;;;;;;6233616;28;20288;-70
2023/09/22 14:36:49;;;;;;;7.72;6.95;;;;;;;;;;6234195;28;20372;-68
2023/09/22 14:39:56;;;;;;;12.52;8.05;;;;;;;;;;6233771;28;20320;-69
2023/09/22 14:43:00;;;;;;;15.77;8.30;;;;;;;;;;6232991;28;20288;-69
2023/09/22 14:46:06;;;;;;;14.48;8.48;;;;;;;;;;6233603;28;20323;-68
2023/09/22 14:49:10;;;;;;;13.13;8.10;;;;;;;;;;6233143;28;20299;-68
2023/09/22 14:52:14;;;;;;;11.30;7.65;;;;;;;;;;6233681;28;20374;-69
2023/09/22 14:55:18;;;;;;;9.65;8.27;;;;;;;;;;6247893;28;20292;-71
2023/09/22 14:58:22;;;;;;;10.70;7.82;;;;;;;;;;6232706;28;20348;-69
2023/09/22 15:01:28;;;;;;;11.27;8.02;;;;;;;;;;6232825;28;20300;-69
2023/09/22 15:04:32;;;;;;;14.75;8.07;;;;;;;;;;6231173;28;20307;-70
2023/09/22 15:07:36;;;;;;;11.98;8.07;;;;;;;;;;6233251;28;20474;-68
2023/09/22 15:10:39;;;;;;;13.20;7.78;;;;;;;;;;6232381;28;20596;-70
2023/09/22 15:13:43;;;;;;;11.98;7.85;;;;;;;;;;6232867;28;20292;-67
2023/09/22 15:16:48;;;;;;;13.18;8.63;;;;;;;;;;6233054;28;20288;-68
2023/09/22 15:19:52;;;;;;;16.08;8.98;;;;;;;;;;6232776;28;20722;-70
2023/09/22 15:22:56;;;;;;;12.48;8.63;;;;;;;;;;6232498;28;20333;-68
2023/09/22 15:26:01;;;;;;;15.48;8.93;;;;;;;;;;6233058;28;20299;-68
2023/09/22 15:29:05;;;;;;;10.77;8.88;;;;;;;;;;6232532;28;20512;-68
2023/09/22 15:32:11;;;;;;;11.48;8.70;;;;;;;;;;6232874;28;20304;-70
2023/09/22 15:35:15;;;;;;;19.30;9.68;;;;;;;;;;6231916;28;20331;-68
2023/09/22 15:38:19;;;;;;;11.25;8.93;;;;;;;;;;6232797;28;20287;-68
2023/09/22 15:41:23;;;;;;;15.07;8.85;;;;;;;;;;6233793;28;20307;-68
2023/09/22 15:44:26;;;;;;;13.60;9.43;;;;;;;;;;6232559;28;20416;-68
2023/09/22 15:47:32;;;;;;;10.23;8.20;;;;;;;;;;6232444;28;20762;-69
2023/09/22 15:50:36;;;;;;;15.95;9.07;;;;;;;;;;6232383;28;20312;-68
2023/09/22 15:53:40;;;;;;;14.77;8.88;;;;;;;;;;6232234;28;20470;-69
2023/09/22 15:56:43;;;;;;;15.63;9.73;;;;;;;;;;6232716;28;20299;-69
2023/09/22 15:59:47;;;;;;;12.63;9.13;;;;;;;;;;6232135;28;20236;-70
2023/09/22 16:02:54;;;;;;;18.05;9.23;;;;;;;;;;6230266;28;20352;-70
2023/09/22 16:05:58;;;;;;;15.82;9.07;;;;;;;;;;6232583;28;20301;-67
2023/09/22 16:09:02;;;;;;;15.95;9.43;;;;;;;;;;6232376;28;20442;-69
2023/09/22 16:12:06;;;;;;;13.73;9.63;;;;;;;;;;6232537;28;20304;-70
2023/09/22 16:15:10;;;;;;;18.00;9.32;;;;;;;;;;6233905;28;20477;-68
2023/09/22 16:18:16;;;;;;;13.80;8.98;;;;;;;;;;6237249;28;20288;-69
2023/09/22 16:21:20;;;;;;;16.40;9.50;;;;;;;;;;6237258;28;20509;-69
2023/09/22 16:24:24;;;;;;;17.85;9.65;;;;;;;;;;6236864;28;20308;-70
2023/09/22 16:27:27;;;;;;;15.38;9.77;;;;;;;;;;6252305;28;20324;-70
2023/09/22 16:30:31;;;;;;;17.40;9.57;;;;;;;;;;6236649;28;20300;-69
2023/09/22 16:33:36;;;;;;;13.73;9.40;;;;;;;;;;6234047;28;20324;-69
2023/09/22 16:36:40;;;;;;;15.45;9.32;;;;;;;;;;6237299;28;20384;-69
2023/09/22 16:39:44;;;;;;;24.67;10.02;;;;;;;;;;6236739;28;20296;-70
2023/09/22 16:42:48;;;;;;;17.40;10.18;;;;;;;;;;6236840;28;20248;-69
2023/09/22 16:45:51;;;;;;;23.10;11.40;;;;;;;;;;6236207;28;20273;-70
2023/09/22 16:48:58;;;;;;;23.95;11.70;;;;;;;;;;6236513;28;20296;-69
2023/09/22 16:52:02;;;;;;;23.80;11.70;;;;;;;;;;6237235;28;20299;-68
2023/09/22 16:55:08;;;;;;;22.40;11.95;;;;;;;;;;6236714;28;20300;-70
2023/09/22 16:58:12;;;;;;;17.90;12.25;;;;;;;;;;6236346;28;20376;-70
2023/09/22 17:01:16;;;;;;;26.00;12.80;;;;;;;;;;6236584;28;20308;-71
2023/09/22 17:04:21;;;;;;;18.92;12.63;;;;;;;;;;6235106;28;20308;-70
2023/09/22 17:07:26;;;;;;;18.85;12.18;;;;;;;;;;6237155;28;20312;-71
2023/09/22 17:10:30;;;;;;;23.67;11.93;;;;;;;;;;6235767;28;20484;-69
2023/09/22 17:13:34;;;;;;;24.65;13.70;;;;;;;;;;6235993;28;20295;-72
2023/09/22 17:16:38;;;;;;;26.30;12.73;;;;;;;;;;6236581;28;20604;-69
2023/09/22 17:19:45;;;;;;;22.20;13.23;;;;;;;;;;6235526;28;20320;-69
2023/09/22 17:22:52;;;;;;;34.80;14.50;;;;;;;;;;6228411;28;20312;-70
2023/09/22 17:25:56;;;;;;;26.38;14.48;;;;;;;;;;6234578;28;20546;-70
2023/09/22 17:29:00;;;;;;;23.77;14.05;;;;;;;;;;6234419;28;20296;-69
2023/09/22 17:32:04;;;;;;;31.80;14.55;;;;;;;;;;6235829;28;20312;-69
2023/09/22 17:35:11;;;;;;;25.08;14.77;;;;;;;;;;6233450;28;20320;-70
2023/09/22 17:38:15;;;;;;;25.75;14.95;;;;;;;;;;6234713;28;21367;-71
2023/09/22 17:41:23;;;;;;;23.95;14.05;;;;;;;;;;6235433;28;20316;-69
2023/09/22 17:44:27;;;;;;;26.83;15.05;;;;;;;;;;6234990;28;20296;-70
2023/09/22 17:47:31;;;;;;;21.05;14.40;;;;;;;;;;6235052;28;20303;-72
2023/09/22 17:50:37;;;;;;;22.77;14.18;;;;;;;;;;6234751;28;20301;-72
2023/09/22 17:53:41;;;;;;;28.77;14.93;;;;;;;;;;6234247;28;20297;-69
2023/09/22 17:56:45;;;;;;;24.10;15.05;;;;;;;;;;6235306;28;20309;-71
2023/09/22 17:59:49;;;;;;;23.13;14.73;;;;;;;;;;6234327;28;20311;-71
2023/09/22 18:02:53;;;;;;;28.52;16.27;;;;;;;;;;6232906;28;20312;-71
2023/09/22 18:06:00;;;;;;;21.60;15.15;;;;;;;;;;6234966;28;20316;-68
2023/09/22 18:09:04;;;;;;;20.50;14.48;;;;;;;;;;6234262;28;20469;-71
2023/09/22 18:12:09;;;;;;;23.52;15.25;;;;;;;;;;6234830;28;20299;-70
2023/09/22 18:15:13;;;;;;;19.92;14.88;;;;;;;;;;6234137;28;20300;-73
2023/09/22 18:18:18;;;;;;;22.40;14.40;;;;;;;;;;6234218;28;20296;-69
2023/09/22 18:21:26;;;;;;;23.20;15.75;;;;;;;;;;6234649;28;20304;-69